Time;durP1;ratioP1;P1;durP2;ratioP2;P2;SDS_P1;SDS_P2;PMS_P1;PMS_P2;Temp;Humidity;BMP_temperature;BMP_pressure;BME280_temperature;BME280_humidity;BME280_pressure;Samples;Min_cycle;Max_cycle;Signal;HPM_P1;HPM_P2
2021/11/25 00:07:20;;;;;;;23.00;9.88;;;6.80;99.90;;;;;;20988619;28;20040;-46
2021/11/25 00:17:21;;;;;;;27.65;9.77;;;6.70;99.90;;;;;;20985702;28;20036;-46
2021/11/25 00:27:23;;;;;;;34.90;10.95;;;6.70;99.90;;;;;;20985891;28;20280;-46
2021/11/25 00:37:24;;;;;;;27.33;7.97;;;6.80;99.90;;;;;;20979313;28;20411;-46
2021/11/25 00:47:25;;;;;;;24.77;7.65;;;6.70;99.90;;;;;;20984539;28;20061;-46
2021/11/25 00:57:27;;;;;;;27.77;9.27;;;6.60;99.90;;;;;;20986298;28;20469;-46
2021/11/25 01:07:31;;;;;;;23.73;8.93;;;6.60;99.90;;;;;;20988941;28;20092;-46
2021/11/25 01:17:34;;;;;;;25.30;7.72;;;6.60;99.90;;;;;;20984565;28;20515;-46
2021/11/25 01:27:35;;;;;;;27.17;8.77;;;6.70;99.90;;;;;;20981326;28;20032;-46
2021/11/25 01:37:37;;;;;;;28.52;8.80;;;6.60;99.90;;;;;;20987924;28;20411;-46
2021/11/25 01:47:46;;;;;;;25.55;8.00;;;6.60;99.90;;;;;;20966554;28;20048;-46
2021/11/25 01:57:49;;;;;;;21.85;7.93;;;6.60;99.90;;;;;;20986310;28;20372;-46
2021/11/25 02:07:51;;;;;;;21.48;7.60;;;6.50;99.90;;;;;;20984759;28;20044;-45
2021/11/25 02:17:53;;;;;;;25.38;7.95;;;6.50;99.90;;;;;;20986903;28;20163;-46
2021/11/25 02:27:54;;;;;;;19.60;9.15;;;6.50;99.90;;;;;;20995724;28;20554;-46
2021/11/25 02:37:56;;;;;;;24.77;7.80;;;6.50;99.90;;;;;;20999079;28;20275;-46
2021/11/25 02:47:58;;;;;;;22.95;9.18;;;6.60;99.90;;;;;;20998864;28;20049;-46
2021/11/25 02:57:59;;;;;;;23.75;9.43;;;6.50;99.90;;;;;;21000245;28;20052;-46
2021/11/25 03:08:05;;;;;;;23.27;7.13;;;6.50;99.90;;;;;;20995577;28;20044;-46
2021/11/25 03:18:09;;;;;;;20.95;7.38;;;6.50;99.90;;;;;;20989358;28;20036;-46
2021/11/25 03:28:12;;;;;;;18.90;7.53;;;6.50;99.90;;;;;;20987101;28;20047;-46
2021/11/25 03:38:13;;;;;;;22.63;9.02;;;6.40;99.90;;;;;;20989261;28;20358;-46
2021/11/25 03:48:15;;;;;;;29.17;9.75;;;6.40;99.90;;;;;;20983569;28;20483;-45
2021/11/25 03:58:16;;;;;;;23.73;8.35;;;6.30;99.90;;;;;;20984059;28;20029;-45
2021/11/25 04:08:17;;;;;;;24.48;9.10;;;6.10;99.90;;;;;;20981682;28;20048;-45
2021/11/25 04:18:18;;;;;;;24.15;8.02;;;6.10;99.90;;;;;;20984217;28;20402;-45
2021/11/25 04:28:20;;;;;;;27.98;7.63;;;6.00;99.90;;;;;;20981860;28;20041;-45
2021/11/25 04:38:25;;;;;;;22.75;8.75;;;5.80;99.90;;;;;;20984720;28;20039;-46
2021/11/25 04:48:27;;;;;;;21.60;8.32;;;5.80;99.90;;;;;;20974436;28;20040;-46
2021/11/25 04:58:28;;;;;;;23.88;8.70;;;5.80;99.90;;;;;;20978106;28;20091;-45
2021/11/25 05:08:29;;;;;;;16.30;7.47;;;5.80;99.90;;;;;;20977576;28;20443;-46
2021/11/25 05:18:31;;;;;;;20.95;7.93;;;5.80;99.90;;;;;;20977607;28;20399;-45
2021/11/25 05:28:32;;;;;;;17.15;7.70;;;5.80;99.90;;;;;;20980462;28;20047;-46
2021/11/25 05:38:33;;;;;;;23.02;7.10;;;5.80;99.90;;;;;;20986878;28;20042;-45
2021/11/25 05:48:34;;;;;;;23.60;8.57;;;5.80;99.90;;;;;;20977294;28;20436;-45
2021/11/25 05:58:35;;;;;;;21.23;7.43;;;5.80;99.90;;;;;;20987181;28;20055;-46
2021/11/25 06:08:36;;;;;;;27.38;8.38;;;5.80;99.90;;;;;;20992028;28;20051;-45
2021/11/25 06:18:38;;;;;;;21.08;8.52;;;5.80;99.90;;;;;;20993615;28;20089;-45
2021/11/25 06:28:39;;;;;;;23.08;8.50;;;5.80;99.90;;;;;;20990075;28;20051;-45
2021/11/25 06:38:41;;;;;;;20.90;7.25;;;5.90;99.90;;;;;;20990896;28;20040;-46
2021/11/25 06:48:42;;;;;;;23.80;9.18;;;6.00;99.90;;;;;;20986908;28;20056;-46
2021/11/25 06:58:44;;;;;;;24.10;8.55;;;6.00;99.90;;;;;;20992286;28;20050;-45
2021/11/25 07:08:45;;;;;;;22.30;7.35;;;6.00;99.90;;;;;;20980116;28;20047;-46
2021/11/25 07:18:47;;;;;;;24.25;8.02;;;6.10;99.90;;;;;;20985216;28;20523;-46
2021/11/25 07:28:48;;;;;;;33.45;9.32;;;6.20;99.90;;;;;;20965839;28;20052;-46
2021/11/25 07:38:49;;;;;;;24.35;9.13;;;6.30;99.90;;;;;;20988167;28;20036;-46
2021/11/25 07:48:51;;;;;;;25.00;8.57;;;6.20;99.90;;;;;;20987599;28;20071;-46
2021/11/25 07:58:52;;;;;;;26.48;8.77;;;6.20;99.90;;;;;;20993750;28;20032;-46
2021/11/25 08:08:53;;;;;;;20.75;8.85;;;6.20;99.90;;;;;;20984318;28;20048;-46
2021/11/25 08:18:54;;;;;;;29.65;9.85;;;6.30;99.90;;;;;;20983489;28;20047;-46
2021/11/25 08:28:55;;;;;;;27.42;9.77;;;6.40;99.90;;;;;;20966894;28;20090;-46
2021/11/25 08:38:57;;;;;;;18.15;8.13;;;6.40;99.90;;;;;;20975230;28;20036;-46
2021/11/25 08:48:58;;;;;;;24.58;8.85;;;6.60;99.90;;;;;;20979454;28;20547;-45
2021/11/25 08:58:59;;;;;;;16.23;7.22;;;6.70;99.90;;;;;;20959295;28;20790;-45
2021/11/25 09:09:00;;;;;;;21.15;7.97;;;6.70;99.90;;;;;;20974892;28;20048;-45
2021/11/25 09:19:01;;;;;;;23.23;8.55;;;6.60;99.90;;;;;;20972864;28;20041;-45
2021/11/25 09:29:04;;;;;;;22.15;7.85;;;6.70;99.90;;;;;;20968696;28;20049;-45
2021/11/25 09:39:07;;;;;;;18.27;6.72;;;6.80;99.90;;;;;;20960285;28;20037;-45
2021/11/25 09:49:13;;;;;;;16.40;6.35;;;6.90;99.90;;;;;;20976241;28;20073;-45
2021/11/25 09:59:14;;;;;;;25.75;6.57;;;7.10;99.90;;;;;;20981615;28;20032;-45
2021/11/25 10:09:15;;;;;;;14.90;5.93;;;7.40;99.90;;;;;;20972586;28;20040;-45
2021/11/25 10:19:19;;;;;;;13.25;5.57;;;7.70;99.90;;;;;;20954921;28;20969;-45
2021/11/25 10:29:21;;;;;;;15.38;5.28;;;7.80;99.90;;;;;;20982274;28;20051;-45
2021/11/25 10:49:42;;;;;;;16.58;5.28;;;8.40;99.90;;;;;;20988838;28;20063;-45
2021/11/25 10:59:48;;;;;;;14.57;3.85;;;8.60;99.90;;;;;;20969370;28;20052;-45
2021/11/25 11:09:50;;;;;;;13.67;3.37;;;8.80;99.90;;;;;;20981064;28;20051;-43
2021/11/25 11:20:09;;;;;;;3.72;1.38;;;8.90;99.90;;;;;;20994368;28;20029;-43
2021/11/25 11:30:10;;;;;;;2.75;0.30;;;9.10;99.90;;;;;;20991673;28;20043;-43
2021/11/25 11:40:12;;;;;;;1.17;0.28;;;8.90;99.90;;;;;;20993297;28;20033;-46
2021/11/25 11:50:13;;;;;;;3.95;0.35;;;8.80;99.90;;;;;;20984176;28;20130;-43
2021/11/25 12:00:21;;;;;;;7.80;0.40;;;8.80;99.90;;;;;;20978482;28;20043;-43
2021/11/25 12:10:22;;;;;;;1.75;0.52;;;8.90;99.90;;;;;;20965133;28;20040;-43
2021/11/25 12:20:26;;;;;;;0.68;0.10;;;9.10;99.90;;;;;;20987517;28;20115;-43
2021/11/25 12:30:40;;;;;;;2.67;0.38;;;9.00;99.90;;;;;;20966156;28;20032;-43
2021/11/25 12:40:45;;;;;;;0.45;0.10;;;8.90;99.90;;;;;;20970410;28;20036;-44
2021/11/25 12:50:55;;;;;;;2.42;0.30;;;9.10;99.90;;;;;;20979693;28;20044;-46
2021/11/25 13:00:57;;;;;;;0.30;0.17;;;9.40;99.90;;;;;;20975277;28;20103;-43
2021/11/25 13:11:00;;;;;;;1.80;0.30;;;9.40;99.90;;;;;;20974236;28;20051;-44
2021/11/25 13:21:01;;;;;;;7.00;0.40;;;9.30;99.90;;;;;;20980546;28;20028;-44
2021/11/25 13:31:21;;;;;;;6.25;0.40;;;9.30;99.90;;;;;;20975152;28;20044;-44
2021/11/25 13:41:22;;;;;;;0.88;0.25;;;9.50;99.90;;;;;;20975607;28;20550;-44
2021/11/25 13:51:24;;;;;;;3.95;0.30;;;9.60;99.90;;;;;;20976251;28;20044;-43
2021/11/25 14:01:25;;;;;;;0.40;0.25;;;9.20;99.90;;;;;;20972400;28;20062;-44
2021/11/25 14:11:27;;;;;;;0.25;0.08;;;8.90;99.90;;;;;;20972797;28;20040;-44
2021/11/25 14:21:51;;;;;;;7.22;0.80;;;9.00;99.90;;;;;;20988242;28;20047;-44
2021/11/25 14:31:52;;;;;;;1.10;0.15;;;9.10;99.90;;;;;;20988469;28;20036;-44
2021/11/25 14:42:05;;;;;;;3.50;0.30;;;9.20;99.90;;;;;;20989149;28;20442;-43
2021/11/25 14:52:21;;;;;;;1.70;0.50;;;9.10;99.90;;;;;;20987696;28;20045;-46
2021/11/25 15:02:34;;;;;;;1.75;1.10;;;8.90;99.90;;;;;;20986660;28;20894;-44
2021/11/25 15:12:37;;;;;;;3.83;0.35;;;8.60;99.90;;;;;;20975854;28;20654;-44
2021/11/25 15:22:39;;;;;;;1.15;0.28;;;8.30;99.90;;;;;;20990544;28;20040;-44
2021/11/25 15:32:46;;;;;;;0.80;0.30;;;7.80;99.90;;;;;;20985855;28;20048;-45
2021/11/25 15:42:49;;;;;;;0.55;0.22;;;7.60;99.90;;;;;;20968931;28;20027;-44
2021/11/25 15:52:50;;;;;;;0.55;0.30;;;7.30;99.90;;;;;;20954628;28;20067;-44
2021/11/25 16:02:52;;;;;;;0.85;0.43;;;6.90;99.90;;;;;;20983871;28;20036;-45
2021/11/25 16:12:54;;;;;;;1.25;0.40;;;6.70;99.90;;;;;;20985940;28;20040;-44
2021/11/25 16:22:55;;;;;;;2.83;1.05;;;6.50;99.90;;;;;;20984326;28;20036;-44
2021/11/25 16:32:56;;;;;;;1.17;0.55;;;6.40;99.90;;;;;;20982891;28;20051;-44
2021/11/25 16:42:57;;;;;;;1.58;0.45;;;6.10;99.90;;;;;;20985530;28;20032;-44
2021/11/25 16:52:59;;;;;;;5.05;0.50;;;6.00;99.90;;;;;;20960923;28;20623;-44
2021/11/25 17:03:01;;;;;;;2.42;0.57;;;5.80;99.90;;;;;;20992613;28;20040;-44
2021/11/25 17:13:02;;;;;;;3.30;0.73;;;5.70;99.90;;;;;;20979026;28;20758;-44
2021/11/25 17:23:03;;;;;;;1.67;0.50;;;5.60;99.90;;;;;;20980990;28;20045;-44
2021/11/25 17:33:08;;;;;;;4.82;1.02;;;5.60;99.90;;;;;;20975839;28;20044;-44
2021/11/25 17:43:10;;;;;;;4.13;0.90;;;5.60;99.90;;;;;;20961940;28;20036;-44
2021/11/25 17:53:12;;;;;;;2.13;1.10;;;5.40;99.90;;;;;;20984200;28;20071;-45
2021/11/25 18:03:13;;;;;;;3.08;0.70;;;5.60;99.90;;;;;;21000506;28;20051;-45
2021/11/25 18:13:16;;;;;;;3.42;0.60;;;5.60;99.90;;;;;;21015556;28;20037;-45
2021/11/25 18:23:17;;;;;;;0.82;0.40;;;5.60;99.90;;;;;;21005563;28;20033;-45
2021/11/25 18:33:18;;;;;;;2.30;0.82;;;5.50;99.90;;;;;;21007891;28;20045;-45
2021/11/25 18:43:19;;;;;;;3.25;1.08;;;5.40;99.90;;;;;;21001501;28;20036;-45
2021/11/25 18:53:20;;;;;;;3.78;0.88;;;5.40;99.90;;;;;;20963086;28;20041;-45
2021/11/25 19:03:22;;;;;;;2.22;0.80;;;5.50;99.90;;;;;;21002250;28;22056;-45
2021/11/25 19:13:23;;;;;;;3.42;1.70;;;5.50;99.90;;;;;;20997862;28;20048;-48
2021/11/25 19:23:27;;;;;;;2.80;1.20;;;5.30;99.90;;;;;;21006930;28;20468;-45
2021/11/25 19:33:28;;;;;;;4.93;1.00;;;5.30;99.90;;;;;;21001459;28;20423;-45
2021/11/25 19:43:30;;;;;;;5.30;1.55;;;5.20;99.90;;;;;;20972749;28;20048;-45
2021/11/25 19:53:32;;;;;;;3.03;0.85;;;5.20;99.90;;;;;;21002139;28;20044;-45
2021/11/25 20:03:33;;;;;;;3.03;1.10;;;5.10;99.90;;;;;;20996696;28;20086;-45
2021/11/25 20:13:36;;;;;;;1.50;0.88;;;5.00;99.90;;;;;;20992252;28;20395;-47
2021/11/25 20:23:37;;;;;;;3.03;0.80;;;4.80;99.90;;;;;;20999831;28;20044;-45
2021/11/25 20:33:39;;;;;;;4.10;1.58;;;4.80;99.90;;;;;;20997620;28;20037;-45
2021/11/25 20:43:42;;;;;;;3.20;1.23;;;5.00;99.90;;;;;;21000940;28;20416;-46
2021/11/25 20:53:44;;;;;;;4.25;1.10;;;5.10;99.90;;;;;;20999130;28;20122;-44
2021/11/25 21:03:49;;;;;;;3.92;1.05;;;5.20;99.90;;;;;;20997314;28;20033;-45
2021/11/25 21:13:53;;;;;;;2.58;0.95;;;5.00;99.90;;;;;;20999113;28;20044;-45
2021/11/25 21:23:55;;;;;;;2.35;0.93;;;4.80;99.90;;;;;;20996944;28;20504;-45
2021/11/25 21:33:56;;;;;;;3.88;1.20;;;4.80;99.90;;;;;;20992340;28;20357;-44
2021/11/25 21:44:00;;;;;;;4.28;1.27;;;4.70;99.90;;;;;;20993838;28;20097;-45
2021/11/25 21:54:03;;;;;;;4.00;1.00;;;4.60;99.90;;;;;;20982389;28;20509;-44
2021/11/25 22:04:04;;;;;;;3.08;1.40;;;4.50;99.90;;;;;;20974464;28;20476;-45
2021/11/25 22:14:06;;;;;;;5.82;1.60;;;4.60;99.90;;;;;;20980375;28;20040;-44
2021/11/25 22:34:27;;;;;;;4.45;1.05;;;4.90;99.90;;;;;;20972333;28;20499;-44
2021/11/25 22:44:29;;;;;;;2.80;0.80;;;4.90;99.90;;;;;;20989976;28;20052;-44
2021/11/25 22:54:30;;;;;;;2.03;0.85;;;5.00;99.90;;;;;;20993074;28;20115;-44
2021/11/25 23:04:32;;;;;;;2.05;0.80;;;5.00;99.90;;;;;;20982690;28;20044;-44
2021/11/25 23:14:33;;;;;;;1.00;0.45;;;4.90;99.90;;;;;;20975121;28;20063;-45
2021/11/25 23:24:34;;;;;;;2.25;0.70;;;4.80;99.90;;;;;;20987121;28;20036;-45
2021/11/25 23:34:35;;;;;;;2.33;0.60;;;4.80;99.90;;;;;;20990031;28;20032;-44
2021/11/25 23:44:41;;;;;;;2.15;0.63;;;4.80;99.90;;;;;;20989940;28;20063;-44
2021/11/25 23:54:42;;;;;;;1.85;0.57;;;4.90;99.90;;;;;;20995858;28;20040;-45
